createdAt,value
2022-09-07T00:00:06.208Z,11.90
2022-09-07T00:01:06.492Z,11.80
2022-09-07T00:02:06.816Z,11.10
2022-09-07T00:03:07.118Z,12.80
2022-09-07T00:04:07.480Z,12.60
2022-09-07T00:05:07.744Z,12.90
2022-09-07T00:06:08.027Z,13.60
2022-09-07T00:07:08.350Z,14.20
2022-09-07T00:08:08.524Z,13.20
2022-09-07T00:09:08.841Z,10.70
2022-09-07T00:10:09.058Z,11.70
2022-09-07T00:11:09.337Z,11.90
2022-09-07T00:12:09.640Z,12.90
2022-09-07T00:13:09.894Z,10.60
2022-09-07T00:14:10.250Z,12.70
2022-09-07T00:15:10.465Z,11.40
2022-09-07T00:16:10.701Z,13.40
2022-09-07T00:17:10.971Z,12.70
2022-09-07T00:18:11.279Z,14.10
2022-09-07T00:19:11.544Z,13.60
2022-09-07T00:20:11.922Z,14.30
2022-09-07T00:21:12.240Z,19.00
2022-09-07T00:22:12.535Z,19.50
2022-09-07T00:23:12.880Z,12.70
2022-09-07T00:24:13.184Z,13.40
2022-09-07T00:25:13.447Z,11.80
2022-09-07T00:26:13.784Z,17.00
2022-09-07T00:27:14.052Z,11.30
2022-09-07T00:28:14.358Z,17.90
2022-09-07T00:29:14.730Z,13.00
2022-09-07T00:30:15.018Z,16.00
2022-09-07T00:31:15.442Z,14.60
2022-09-07T00:32:15.764Z,12.50
2022-09-07T00:33:15.847Z,12.80
2022-09-07T00:34:16.197Z,9.80
2022-09-07T00:35:16.520Z,13.40
2022-09-07T00:36:16.827Z,14.10
2022-09-07T00:37:17.183Z,12.90
2022-09-07T00:38:17.334Z,12.50
2022-09-07T00:39:17.668Z,16.00
2022-09-07T00:40:17.925Z,14.00
2022-09-07T00:41:18.224Z,13.80
2022-09-07T00:42:18.569Z,13.20
2022-09-07T00:43:18.898Z,11.00
2022-09-07T00:44:19.069Z,13.90
2022-09-07T00:45:19.418Z,14.10
2022-09-07T00:46:19.705Z,14.20
2022-09-07T00:47:19.814Z,15.10
2022-09-07T00:48:20.182Z,13.30
2022-09-07T00:49:20.501Z,12.00
2022-09-07T00:50:20.881Z,13.00
2022-09-07T00:51:21.175Z,13.10
2022-09-07T00:52:21.526Z,13.00
2022-09-07T00:53:21.779Z,13.60
2022-09-07T00:54:22.023Z,15.50
2022-09-07T00:55:22.357Z,14.20
2022-09-07T00:56:23.087Z,13.10
2022-09-07T00:57:22.873Z,13.00
2022-09-07T00:58:23.096Z,13.90
2022-09-07T00:59:23.376Z,12.60
2022-09-07T01:00:23.771Z,13.40
2022-09-07T01:01:24.281Z,10.70
2022-09-07T01:02:24.330Z,12.90
2022-09-07T01:03:24.613Z,12.60
2022-09-07T01:04:24.881Z,10.10
2022-09-07T01:05:25.150Z,13.30
2022-09-07T01:06:25.485Z,13.30
2022-09-07T01:07:25.781Z,12.30
2022-09-07T01:08:26.090Z,9.70
2022-09-07T01:09:26.299Z,11.90
2022-09-07T01:10:26.628Z,11.30
2022-09-07T01:11:26.967Z,12.50
2022-09-07T01:12:27.229Z,12.10
2022-09-07T01:13:27.491Z,10.40
2022-09-07T01:14:27.844Z,14.30
2022-09-07T01:15:28.030Z,10.90
2022-09-07T01:16:28.467Z,10.90
2022-09-07T01:17:28.629Z,8.50
2022-09-07T01:18:29.037Z,10.60
2022-09-07T01:19:29.280Z,11.30
2022-09-07T01:20:29.540Z,12.30
2022-09-07T01:21:29.877Z,11.30
2022-09-07T01:22:30.076Z,9.70
2022-09-07T01:23:30.380Z,9.80
2022-09-07T01:24:30.733Z,10.40
2022-09-07T01:25:31.052Z,12.00
2022-09-07T01:26:31.294Z,10.70
2022-09-07T01:27:31.557Z,10.10
2022-09-07T01:28:31.849Z,10.50
2022-09-07T01:29:32.024Z,11.00
2022-09-07T01:30:32.384Z,12.80
2022-09-07T01:31:32.750Z,10.30
2022-09-07T01:32:33.012Z,10.40
2022-09-07T01:33:33.246Z,14.00
2022-09-07T01:34:33.524Z,12.20
2022-09-07T01:35:33.782Z,10.30
2022-09-07T01:36:33.996Z,12.90
2022-09-07T01:37:34.268Z,12.30
2022-09-07T01:38:34.576Z,12.40
2022-09-07T01:39:34.920Z,12.50
2022-09-07T01:40:35.150Z,14.40
2022-09-07T01:41:35.472Z,11.00
2022-09-07T01:42:35.713Z,15.50
2022-09-07T01:43:36.032Z,12.80
2022-09-07T01:44:36.318Z,15.30
2022-09-07T01:45:36.659Z,13.10
2022-09-07T01:46:37.101Z,13.50
2022-09-07T01:47:37.245Z,13.30
2022-09-07T01:48:37.469Z,14.40
2022-09-07T01:49:37.788Z,11.00
2022-09-07T01:50:38.075Z,13.40
2022-09-07T01:51:38.402Z,13.50
2022-09-07T01:52:38.686Z,12.90
2022-09-07T01:53:39.031Z,12.80
2022-09-07T01:54:39.227Z,13.40
2022-09-07T01:55:39.522Z,12.20
2022-09-07T01:56:39.831Z,16.70
2022-09-07T01:57:40.148Z,16.10
2022-09-07T01:58:40.443Z,17.20
2022-09-07T01:59:40.791Z,15.20
2022-09-07T02:00:41.196Z,13.30
2022-09-07T02:01:41.496Z,16.70
2022-09-07T02:02:41.756Z,18.40
2022-09-07T02:03:41.956Z,13.10
2022-09-07T02:04:42.284Z,15.10
2022-09-07T02:05:42.506Z,13.10
2022-09-07T02:06:42.870Z,15.40
2022-09-07T02:07:43.197Z,16.20
2022-09-07T02:08:43.502Z,16.40
2022-09-07T02:09:43.793Z,15.90
2022-09-07T02:10:44.096Z,16.60
2022-09-07T02:11:44.356Z,20.50
2022-09-07T02:12:44.730Z,18.30
2022-09-07T02:13:44.957Z,15.30
2022-09-07T02:14:48.277Z,16.80
2022-09-07T02:15:46.609Z,15.70
2022-09-07T02:16:45.802Z,16.90
2022-09-07T02:17:46.107Z,16.60
2022-09-07T02:18:46.451Z,16.60
2022-09-07T02:19:46.762Z,19.40
2022-09-07T02:20:47.109Z,17.10
2022-09-07T02:21:47.299Z,15.30
2022-09-07T02:22:47.582Z,18.80
2022-09-07T02:23:47.872Z,15.00
2022-09-07T02:24:48.312Z,15.80
2022-09-07T02:25:48.585Z,15.80
2022-09-07T02:26:48.861Z,18.30
2022-09-07T02:27:49.173Z,12.90
2022-09-07T02:28:49.469Z,16.20
2022-09-07T02:29:49.757Z,14.60
2022-09-07T02:30:50.102Z,17.40
2022-09-07T02:31:50.333Z,17.20
2022-09-07T02:32:50.698Z,16.20
2022-09-07T02:33:50.989Z,16.30
2022-09-07T02:34:51.272Z,19.10
2022-09-07T02:35:51.583Z,17.40
2022-09-07T02:36:51.914Z,17.90
2022-09-07T02:37:52.176Z,18.40
2022-09-07T02:38:52.438Z,18.90
2022-09-07T02:39:52.754Z,19.00
2022-09-07T02:40:52.924Z,17.00
2022-09-07T02:41:53.165Z,15.80
2022-09-07T02:42:53.448Z,16.00
2022-09-07T02:43:53.820Z,15.40
2022-09-07T02:44:53.983Z,17.80
2022-09-07T02:45:54.419Z,16.50
2022-09-07T02:46:54.712Z,15.20
2022-09-07T02:47:55.023Z,14.40
2022-09-07T02:48:55.358Z,14.20
2022-09-07T02:49:55.646Z,15.20
2022-09-07T02:50:55.977Z,13.30
2022-09-07T02:51:56.268Z,13.20
2022-09-07T02:52:56.566Z,11.30
2022-09-07T02:53:56.866Z,10.80
2022-09-07T02:54:57.068Z,11.60
2022-09-07T02:55:57.404Z,13.10
2022-09-07T02:56:57.716Z,12.10
2022-09-07T02:57:58.033Z,12.80
2022-09-07T02:58:58.334Z,12.40
2022-09-07T02:59:58.651Z,12.60
2022-09-07T03:00:59.045Z,11.60
2022-09-07T03:01:59.170Z,14.70
2022-09-07T03:02:59.612Z,11.20
2022-09-07T03:03:59.723Z,12.80
2022-09-07T03:05:00.040Z,13.70
2022-09-07T03:06:00.709Z,12.80
2022-09-07T03:07:00.570Z,13.50
2022-09-07T03:08:00.876Z,11.10
2022-09-07T03:09:01.182Z,11.70
2022-09-07T03:10:01.458Z,10.40
2022-09-07T03:11:01.727Z,11.90
2022-09-07T03:12:02.012Z,12.60
2022-09-07T03:13:02.258Z,11.60
2022-09-07T03:14:02.561Z,10.10
2022-09-07T03:15:02.820Z,12.80
2022-09-07T03:16:03.228Z,14.20
2022-09-07T03:17:03.556Z,12.20
2022-09-07T03:18:04.182Z,11.20
2022-09-07T03:19:04.034Z,12.20
2022-09-07T03:20:04.364Z,11.10
2022-09-07T03:21:04.647Z,11.30
2022-09-07T03:22:04.940Z,10.10
2022-09-07T03:23:05.296Z,10.90
2022-09-07T03:24:05.594Z,11.70
2022-09-07T03:25:05.935Z,10.80
2022-09-07T03:26:06.238Z,12.70
2022-09-07T03:27:06.566Z,12.70
2022-09-07T03:28:06.937Z,11.60
2022-09-07T03:29:07.207Z,12.70
2022-09-07T03:30:07.519Z,12.80
2022-09-07T03:31:07.940Z,12.90
2022-09-07T03:32:08.126Z,11.60
2022-09-07T03:33:08.386Z,10.90
2022-09-07T03:34:08.728Z,11.30
2022-09-07T03:35:09.029Z,12.40
2022-09-07T03:36:09.351Z,10.80
2022-09-07T03:37:09.654Z,14.10
2022-09-07T03:38:09.920Z,13.30
2022-09-07T03:39:10.240Z,13.90
2022-09-07T03:40:10.571Z,14.00
2022-09-07T03:41:10.743Z,13.20
2022-09-07T03:42:11.094Z,10.70
2022-09-07T03:43:11.432Z,11.70
2022-09-07T03:44:11.677Z,11.70
2022-09-07T03:45:11.992Z,13.40
2022-09-07T03:46:12.257Z,13.00
2022-09-07T03:47:12.522Z,12.30
2022-09-07T03:48:12.843Z,12.70
2022-09-07T03:49:13.161Z,14.00
2022-09-07T03:50:13.480Z,12.90
2022-09-07T03:51:13.774Z,11.20
2022-09-07T03:52:14.134Z,13.50
2022-09-07T03:53:14.305Z,12.70
2022-09-07T03:54:14.592Z,14.10
2022-09-07T03:55:14.921Z,12.70
2022-09-07T03:56:15.217Z,11.50
2022-09-07T03:57:15.475Z,14.20
2022-09-07T03:58:15.823Z,16.70
2022-09-07T03:59:16.107Z,14.70
2022-09-07T04:00:16.426Z,13.20
2022-09-07T04:01:16.726Z,12.50
2022-09-07T04:02:17.078Z,17.40
2022-09-07T04:03:17.355Z,12.50
2022-09-07T04:04:17.691Z,12.40
2022-09-07T04:05:17.996Z,13.20
2022-09-07T04:06:18.244Z,12.50
2022-09-07T04:07:18.550Z,11.60
2022-09-07T04:08:18.825Z,14.90
2022-09-07T04:09:20.159Z,15.20
2022-09-07T04:10:19.451Z,14.50
2022-09-07T04:11:19.836Z,12.90
2022-09-07T04:12:20.074Z,13.10
2022-09-07T04:13:20.389Z,15.10
2022-09-07T04:14:20.698Z,13.80
2022-09-07T04:15:21.012Z,13.80
2022-09-07T04:16:21.369Z,16.40
2022-09-07T04:17:21.576Z,13.10
2022-09-07T04:18:21.827Z,13.30
2022-09-07T04:19:22.175Z,16.60
2022-09-07T04:20:22.449Z,13.30
2022-09-07T04:21:22.714Z,16.90
2022-09-07T04:22:23.138Z,14.60
2022-09-07T04:23:23.324Z,14.90
2022-09-07T04:24:23.615Z,14.40
2022-09-07T04:25:23.757Z,16.20
2022-09-07T04:26:24.085Z,16.30
2022-09-07T04:27:24.334Z,16.90
2022-09-07T04:28:24.647Z,17.90
2022-09-07T04:29:25.023Z,17.70
2022-09-07T04:30:25.232Z,16.30
2022-09-07T04:31:25.490Z,16.90
2022-09-07T04:32:25.698Z,16.60
2022-09-07T04:33:25.959Z,18.00
2022-09-07T04:34:26.202Z,17.30
2022-09-07T04:35:26.508Z,20.80
2022-09-07T04:36:26.700Z,20.20
2022-09-07T04:37:26.922Z,21.00
2022-09-07T04:38:27.362Z,23.40
2022-09-07T04:39:27.571Z,22.50
2022-09-07T04:40:27.796Z,27.60
2022-09-07T04:41:28.050Z,31.60
2022-09-07T04:42:28.307Z,24.40
2022-09-07T04:43:28.623Z,30.20
2022-09-07T04:44:28.835Z,31.70
2022-09-07T04:45:29.065Z,33.20
2022-09-07T04:46:29.584Z,29.70
2022-09-07T04:47:29.801Z,35.60
2022-09-07T04:48:30.171Z,31.00
2022-09-07T04:49:30.312Z,32.60
2022-09-07T04:50:30.566Z,28.80
2022-09-07T04:51:30.818Z,29.10
2022-09-07T04:52:31.078Z,25.60
2022-09-07T04:53:31.330Z,26.00
2022-09-07T04:54:31.579Z,28.80
2022-09-07T04:55:31.850Z,25.00
2022-09-07T04:56:32.124Z,26.10
2022-09-07T04:57:32.410Z,23.50
2022-09-07T04:58:32.713Z,23.20
2022-09-07T04:59:32.942Z,21.00
2022-09-07T05:00:33.272Z,24.20
2022-09-07T05:01:33.544Z,26.30
2022-09-07T05:02:33.873Z,20.20
2022-09-07T05:03:34.047Z,19.30
2022-09-07T05:04:34.329Z,20.30
2022-09-07T05:05:34.556Z,22.30
2022-09-07T05:06:34.931Z,20.40
2022-09-07T05:07:35.178Z,18.10
2022-09-07T05:08:35.455Z,22.40
2022-09-07T05:09:35.709Z,19.20
2022-09-07T05:10:35.985Z,17.20
2022-09-07T05:11:36.273Z,20.30
2022-09-07T05:12:36.481Z,19.70
2022-09-07T05:13:36.731Z,17.00
2022-09-07T05:14:36.988Z,22.50
2022-09-07T05:15:37.278Z,19.30
2022-09-07T05:16:37.538Z,19.10
2022-09-07T05:17:37.710Z,20.20
2022-09-07T05:18:37.963Z,20.60
2022-09-07T05:19:38.257Z,21.80
2022-09-07T05:20:38.510Z,20.80
2022-09-07T05:21:38.762Z,19.80
2022-09-07T05:22:38.981Z,28.80
2022-09-07T05:23:39.227Z,21.70
2022-09-07T05:24:39.508Z,30.30
2022-09-07T05:25:39.760Z,24.10
2022-09-07T05:26:40.056Z,25.00
2022-09-07T05:27:40.346Z,28.10
2022-09-07T05:28:40.557Z,24.50
2022-09-07T05:31:42.340Z,18.50
2022-09-07T05:32:41.582Z,17.30
2022-09-07T05:34:43.230Z,15.00
2022-09-07T05:35:42.495Z,19.00
2022-09-07T05:36:42.783Z,19.90
2022-09-07T05:37:42.988Z,16.80
2022-09-07T05:38:43.693Z,21.00
2022-09-07T05:39:43.573Z,18.80
2022-09-07T05:40:43.787Z,14.00
2022-09-07T05:41:44.050Z,16.20
2022-09-07T05:42:44.272Z,15.90
2022-09-07T05:44:46.124Z,14.10
2022-09-07T05:45:45.113Z,18.50
2022-09-07T05:46:45.325Z,17.20
2022-09-07T05:47:45.645Z,12.30
2022-09-07T05:48:45.877Z,15.10
2022-09-07T05:49:46.141Z,12.20
2022-09-07T05:50:46.392Z,14.70
2022-09-07T05:51:46.627Z,12.00
2022-09-07T05:52:46.884Z,15.10
2022-09-07T05:53:47.157Z,11.70
2022-09-07T05:54:47.455Z,15.30
2022-09-07T05:55:47.692Z,13.00
2022-09-07T05:56:47.915Z,13.20
2022-09-07T05:57:48.155Z,15.50
2022-09-07T05:58:48.449Z,15.10
2022-09-07T05:59:48.762Z,14.90
2022-09-07T06:00:48.946Z,13.70
2022-09-07T06:01:49.325Z,12.10
2022-09-07T06:02:49.557Z,16.20
2022-09-07T06:03:49.726Z,13.80
2022-09-07T06:04:49.917Z,15.70
2022-09-07T06:05:50.334Z,13.20
2022-09-07T06:07:11.034Z,10.00
2022-09-07T06:07:51.835Z,13.40
2022-09-07T06:08:51.122Z,13.00
2022-09-07T06:10:52.661Z,12.30
2022-09-07T06:11:51.919Z,13.00
2022-09-07T06:12:52.199Z,15.40
2022-09-07T06:13:52.412Z,13.60
2022-09-07T06:14:52.656Z,15.30
2022-09-07T06:15:52.923Z,13.60
2022-09-07T06:16:53.238Z,14.30
2022-09-07T06:17:53.489Z,15.70
2022-09-07T06:18:53.773Z,14.20
2022-09-07T06:19:54.008Z,17.50
2022-09-07T06:20:54.263Z,18.00
2022-09-07T06:21:54.530Z,15.00
2022-09-07T06:22:54.758Z,12.70
2022-09-07T06:23:55.006Z,13.10
2022-09-07T06:24:55.242Z,11.30
2022-09-07T06:25:55.469Z,14.40
2022-09-07T06:26:55.737Z,14.20
2022-09-07T06:27:56.468Z,16.50
2022-09-07T06:28:58.021Z,14.10
2022-09-07T06:29:56.503Z,13.50
2022-09-07T06:30:56.795Z,13.90
2022-09-07T06:32:58.250Z,21.40
2022-09-07T06:33:57.447Z,15.30
2022-09-07T06:34:57.709Z,29.70
2022-09-07T06:35:58.012Z,13.10
2022-09-07T06:36:58.324Z,14.70
2022-09-07T06:37:58.543Z,14.10
2022-09-07T06:38:58.846Z,14.20
2022-09-07T06:39:59.129Z,13.80
2022-09-07T06:42:00.904Z,16.80
2022-09-07T06:43:00.033Z,15.90
2022-09-07T06:44:00.240Z,15.10
2022-09-07T06:45:00.514Z,14.20
2022-09-07T06:48:01.453Z,13.00
2022-09-07T06:49:01.680Z,12.20
2022-09-07T06:50:01.900Z,10.60
2022-09-07T06:51:02.168Z,14.50
2022-09-07T06:52:02.403Z,12.30
2022-09-07T06:55:04.287Z,14.30
2022-09-07T06:56:03.601Z,12.30
2022-09-07T06:57:03.840Z,10.90
2022-09-07T06:58:04.088Z,14.60
2022-09-07T06:59:04.356Z,15.30
2022-09-07T07:00:04.585Z,13.30
2022-09-07T07:01:04.905Z,15.70
2022-09-07T07:02:05.176Z,21.80
2022-09-07T07:03:05.441Z,10.70
2022-09-07T07:04:05.659Z,14.70
2022-09-07T07:05:05.981Z,10.70
2022-09-07T07:06:06.230Z,13.30
2022-09-07T07:07:06.445Z,11.60
2022-09-07T07:08:06.717Z,11.30
2022-09-07T07:09:06.967Z,11.90
2022-09-07T07:10:07.288Z,14.00
2022-09-07T07:11:07.539Z,13.10
2022-09-07T07:12:07.978Z,15.40
2022-09-07T07:13:08.089Z,11.40
2022-09-07T07:14:08.326Z,11.70
2022-09-07T07:15:08.626Z,11.20
2022-09-07T07:16:08.891Z,15.90
2022-09-07T07:17:09.319Z,14.20
2022-09-07T07:18:20.977Z,11.30
2022-09-07T07:19:10.669Z,13.60
2022-09-07T07:20:10.467Z,13.70
2022-09-07T07:21:10.280Z,11.00
2022-09-07T07:23:11.768Z,13.90
2022-09-07T07:24:11.036Z,14.20
2022-09-07T07:25:11.325Z,13.20
2022-09-07T07:26:11.620Z,12.50
2022-09-07T07:27:11.922Z,14.40
2022-09-07T07:29:17.054Z,14.60
2022-09-07T07:30:13.747Z,12.80
2022-09-07T07:31:13.367Z,15.10
2022-09-07T07:32:13.239Z,17.00
2022-09-07T07:33:13.517Z,17.20
2022-09-07T07:34:13.853Z,12.20
2022-09-07T07:35:13.982Z,9.90
2022-09-07T07:36:14.237Z,14.60
2022-09-07T07:37:14.504Z,11.50
2022-09-07T07:40:17.916Z,14.70
2022-09-07T07:42:16.995Z,15.10
2022-09-07T07:43:16.278Z,14.20
2022-09-07T07:44:16.585Z,11.70
2022-09-07T07:46:18.140Z,13.30
2022-09-07T07:47:17.404Z,13.40
2022-09-07T07:48:17.592Z,13.00
2022-09-07T07:49:17.867Z,14.40
2022-09-07T07:50:34.580Z,12.40
2022-09-07T07:51:19.453Z,12.80
2022-09-07T07:54:20.339Z,12.30
2022-09-07T07:56:20.883Z,14.40
2022-09-07T07:57:20.119Z,13.80
2022-09-07T07:58:20.358Z,12.70
2022-09-07T07:59:20.627Z,16.00
2022-09-07T08:00:37.387Z,15.00
2022-09-07T08:01:22.228Z,15.10
2022-09-07T08:02:21.424Z,13.90
2022-09-07T08:03:21.663Z,13.10
2022-09-07T08:04:21.921Z,11.10
2022-09-07T08:05:22.167Z,11.10
2022-09-07T08:06:22.432Z,13.80
2022-09-07T08:07:22.677Z,13.50
2022-09-07T08:08:22.940Z,12.80
2022-09-07T08:09:23.198Z,10.80
2022-09-07T08:10:23.469Z,15.00
2022-09-07T08:11:23.805Z,13.00
2022-09-07T08:12:29.145Z,12.70
2022-09-07T08:13:25.253Z,12.50
2022-09-07T08:14:24.552Z,10.20
2022-09-07T08:15:24.799Z,12.40
2022-09-07T08:16:25.143Z,13.50
2022-09-07T08:17:25.337Z,14.50
2022-09-07T08:18:25.576Z,12.80
2022-09-07T08:19:25.808Z,15.50
2022-09-07T08:20:26.106Z,12.80
2022-09-07T08:21:26.306Z,11.50
2022-09-07T08:22:26.546Z,10.70
2022-09-07T08:23:26.909Z,13.80
2022-09-07T08:24:27.127Z,14.80
2022-09-07T08:25:27.383Z,12.70
2022-09-07T08:26:27.645Z,15.70
2022-09-07T08:27:28.010Z,15.40
2022-09-07T08:28:28.194Z,13.50
2022-09-07T08:29:32.492Z,11.80
2022-09-07T08:30:29.784Z,13.00
2022-09-07T08:31:29.086Z,15.50
2022-09-07T08:32:29.262Z,12.30
2022-09-07T08:33:29.665Z,12.50
2022-09-07T08:34:29.913Z,14.90
2022-09-07T08:35:30.324Z,11.90
2022-09-07T08:36:30.480Z,12.70
2022-09-07T08:37:30.728Z,14.50
2022-09-07T08:38:30.981Z,12.70
2022-09-07T08:39:31.242Z,13.40
2022-09-07T08:40:31.528Z,11.20
2022-09-07T08:41:31.793Z,17.30
2022-09-07T08:42:32.057Z,17.50
2022-09-07T08:43:32.453Z,12.30
2022-09-07T08:44:32.630Z,27.10
2022-09-07T08:45:32.911Z,13.80
2022-09-07T08:46:33.170Z,11.70
2022-09-07T08:47:33.480Z,10.60
2022-09-07T08:48:33.679Z,10.60
2022-09-07T08:49:33.928Z,13.40
2022-09-07T08:50:34.178Z,10.30
2022-09-07T08:51:34.472Z,13.40
2022-09-07T08:52:34.753Z,10.30
2022-09-07T08:53:35.022Z,12.40
2022-09-07T08:54:35.254Z,10.70
2022-09-07T08:55:35.550Z,10.80
2022-09-07T08:56:35.884Z,10.90
2022-09-07T08:57:36.602Z,9.10
2022-09-07T08:58:51.733Z,13.00
2022-09-07T08:59:37.682Z,10.90
2022-09-07T09:00:36.930Z,10.10
2022-09-07T09:01:37.533Z,9.80
2022-09-07T09:02:43.567Z,9.40
2022-09-07T09:04:15.334Z,9.20
2022-09-07T09:05:16.355Z,13.30
2022-09-07T09:05:39.448Z,11.80
2022-09-07T09:06:38.741Z,11.30
2022-09-07T09:07:38.855Z,10.60
2022-09-07T09:08:39.109Z,9.50
2022-09-07T09:09:39.327Z,9.80
2022-09-07T09:10:39.697Z,10.70
2022-09-07T09:11:39.942Z,8.50
2022-09-07T09:12:40.174Z,12.00
2022-09-07T09:13:40.455Z,9.60
2022-09-07T09:14:40.708Z,10.20
2022-09-07T09:15:41.117Z,10.70
2022-09-07T09:16:42.882Z,10.20
2022-09-07T09:17:41.470Z,9.80
2022-09-07T09:18:41.794Z,12.50
2022-09-07T09:19:42.075Z,10.50
2022-09-07T09:20:42.351Z,13.00
2022-09-07T09:21:42.590Z,10.10
2022-09-07T09:22:43.311Z,11.70
2022-09-07T09:23:43.151Z,10.60
2022-09-07T09:24:43.364Z,9.00
2022-09-07T09:25:43.727Z,10.10
2022-09-07T09:26:44.041Z,12.50
2022-09-07T09:27:44.277Z,9.00
2022-09-07T09:28:44.577Z,8.80
2022-09-07T09:29:44.769Z,9.20
2022-09-07T09:30:44.997Z,9.70
2022-09-07T09:31:45.310Z,11.20
2022-09-07T09:32:45.529Z,8.40
2022-09-07T09:33:45.903Z,9.00
2022-09-07T09:34:46.108Z,8.30
2022-09-07T09:35:46.347Z,10.20
2022-09-07T09:36:46.610Z,11.90
2022-09-07T09:37:46.891Z,9.10
2022-09-07T09:38:47.188Z,9.60
2022-09-07T09:39:49.045Z,10.40
2022-09-07T09:40:47.665Z,9.70
2022-09-07T09:41:47.999Z,11.20
2022-09-07T09:42:48.211Z,13.80
2022-09-07T09:43:48.475Z,12.80
2022-09-07T09:44:48.760Z,10.60
2022-09-07T09:47:29.449Z,13.70
2022-09-07T09:47:50.734Z,10.50
2022-09-07T09:48:49.886Z,9.40
2022-09-07T09:49:50.118Z,9.20
2022-09-07T09:52:52.266Z,11.90
2022-09-07T09:53:51.421Z,12.90
2022-09-07T09:54:51.657Z,10.00
2022-09-07T09:55:51.905Z,9.10
2022-09-07T09:56:52.241Z,11.20
2022-09-07T09:59:57.451Z,11.10
2022-09-07T10:03:56.129Z,10.30
2022-09-07T10:04:54.529Z,13.80
2022-09-07T10:05:54.784Z,12.10
2022-09-07T10:06:55.078Z,11.60
2022-09-07T10:07:55.374Z,12.20
2022-09-07T10:08:55.676Z,13.10
2022-09-07T10:09:55.969Z,13.60
2022-09-07T10:10:56.271Z,14.10
2022-09-07T10:12:11.871Z,12.80
2022-09-07T10:12:57.815Z,11.50
2022-09-07T10:13:57.132Z,12.50
2022-09-07T10:14:57.443Z,11.10
2022-09-07T10:15:57.720Z,11.40
2022-09-07T10:16:58.040Z,10.40
2022-09-07T10:17:58.317Z,11.00
2022-09-07T10:18:58.594Z,10.00
2022-09-07T10:19:58.903Z,9.80
2022-09-07T10:20:59.108Z,15.70
2022-09-07T10:21:59.429Z,10.50
2022-09-07T10:22:59.712Z,11.80
2022-09-07T10:23:59.975Z,10.10
2022-09-07T10:25:00.268Z,11.10
2022-09-07T10:26:00.555Z,9.90
2022-09-07T10:27:00.887Z,9.80
2022-09-07T10:28:01.104Z,10.90
2022-09-07T10:29:08.715Z,10.90
2022-09-07T10:30:02.574Z,11.00
2022-09-07T10:31:01.909Z,8.10
2022-09-07T10:32:02.164Z,11.10
2022-09-07T10:33:02.455Z,9.10
2022-09-07T10:35:05.308Z,11.30
2022-09-07T10:36:03.298Z,10.50
2022-09-07T10:37:03.576Z,9.60
2022-09-07T10:38:03.780Z,10.80
2022-09-07T10:39:04.170Z,11.70
2022-09-07T10:40:04.351Z,12.70
2022-09-07T10:41:04.564Z,10.40
2022-09-07T10:42:04.853Z,8.60
2022-09-07T10:43:21.072Z,8.70
2022-09-07T10:44:06.356Z,10.30
2022-09-07T10:45:05.617Z,10.90
2022-09-07T10:46:06.045Z,9.90
2022-09-07T10:47:06.211Z,12.50
2022-09-07T10:48:06.479Z,11.50
2022-09-07T10:49:06.730Z,10.70
2022-09-07T10:50:22.784Z,10.50
2022-09-07T10:51:14.006Z,9.90
2022-09-07T10:52:08.582Z,10.30
2022-09-07T10:53:23.859Z,11.10
2022-09-07T10:55:09.463Z,13.00
2022-09-07T10:56:08.769Z,9.80
2022-09-07T10:57:09.037Z,9.40
2022-09-07T10:58:09.349Z,11.20
2022-09-07T10:59:09.575Z,10.60
2022-09-07T11:00:10.352Z,8.60
2022-09-07T11:01:10.187Z,10.10
2022-09-07T11:02:10.429Z,12.90
2022-09-07T11:03:26.490Z,12.00
2022-09-07T11:04:11.966Z,10.00
2022-09-07T11:05:11.244Z,14.10
2022-09-07T11:06:11.536Z,10.10
2022-09-07T11:07:15.518Z,8.70
2022-09-07T11:08:12.095Z,8.80
2022-09-07T11:09:16.546Z,13.00
2022-09-07T11:10:12.618Z,11.40
2022-09-07T11:11:12.873Z,11.20
2022-09-07T11:12:13.193Z,10.40
2022-09-07T11:13:13.362Z,12.00
2022-09-07T11:14:13.898Z,8.40
2022-09-07T11:15:14.048Z,9.20
2022-09-07T11:16:50.445Z,8.20
2022-09-07T11:17:15.688Z,9.20
2022-09-07T11:18:14.976Z,9.70
2022-09-07T11:20:16.572Z,8.30
2022-09-07T11:21:56.142Z,9.90
2022-09-07T11:22:17.170Z,8.80
2022-09-07T11:23:16.416Z,11.70
2022-09-07T11:24:16.685Z,10.00
2022-09-07T11:25:32.295Z,10.00
2022-09-07T11:26:18.206Z,7.20
2022-09-07T11:27:17.456Z,9.30
2022-09-07T11:28:17.683Z,7.50
2022-09-07T11:29:33.140Z,11.10
2022-09-07T11:30:19.321Z,10.80
2022-09-07T11:31:18.560Z,10.70
2022-09-07T11:32:18.849Z,12.00
2022-09-07T11:33:19.101Z,10.60
2022-09-07T11:34:26.512Z,11.90
2022-09-07T11:35:20.611Z,9.40
2022-09-07T11:36:19.903Z,9.40
2022-09-07T11:37:20.071Z,8.80
2022-09-07T11:38:20.508Z,8.30
2022-09-07T11:39:20.678Z,8.60
2022-09-07T11:40:21.095Z,11.90
2022-09-07T11:41:21.321Z,10.50
2022-09-07T11:43:22.988Z,9.90
2022-09-07T11:44:22.310Z,9.10
2022-09-07T11:45:22.393Z,10.50
2022-09-07T11:46:22.826Z,11.70
2022-09-07T11:47:22.904Z,9.20
2022-09-07T11:48:23.299Z,9.10
2022-09-07T11:49:23.550Z,9.90
2022-09-07T11:50:23.748Z,10.20
2022-09-07T11:51:24.037Z,8.70
2022-09-07T11:52:24.287Z,9.30
2022-09-07T11:53:24.534Z,9.60
2022-09-07T11:54:24.798Z,9.80
2022-09-07T11:55:25.058Z,9.30
2022-09-07T11:56:25.335Z,10.20
2022-09-07T11:57:25.532Z,8.90
2022-09-07T11:58:26.815Z,11.00
2022-09-07T11:59:26.103Z,10.60
2022-09-07T12:00:26.387Z,11.00
2022-09-07T12:01:26.672Z,8.50
2022-09-07T12:02:48.297Z,10.70
2022-09-07T12:03:28.227Z,10.60
2022-09-07T12:04:27.584Z,11.20
2022-09-07T12:05:27.660Z,7.60
2022-09-07T12:06:28.124Z,8.50
2022-09-07T12:07:28.305Z,10.50
2022-09-07T12:08:28.636Z,7.70
2022-09-07T12:09:28.915Z,10.30
2022-09-07T12:10:29.165Z,9.60
2022-09-07T12:11:30.349Z,8.30
2022-09-07T12:12:29.719Z,9.80
2022-09-07T12:13:29.954Z,7.70
2022-09-07T12:14:30.258Z,8.10
2022-09-07T12:15:30.549Z,10.90
2022-09-07T12:16:30.784Z,9.60
2022-09-07T12:17:31.065Z,10.50
2022-09-07T12:18:31.374Z,12.30
2022-09-07T12:19:31.631Z,7.50
2022-09-07T12:20:31.897Z,8.90
2022-09-07T12:21:32.170Z,9.20
2022-09-07T12:22:32.396Z,8.90
2022-09-07T12:23:32.638Z,10.80
2022-09-07T12:24:32.975Z,14.30
2022-09-07T12:25:33.237Z,13.60
2022-09-07T12:26:33.488Z,19.50
2022-09-07T12:27:34.640Z,11.90
2022-09-07T12:28:34.154Z,19.60
2022-09-07T12:29:34.345Z,8.90
2022-09-07T12:30:34.581Z,10.30
2022-09-07T12:31:39.746Z,10.10
2022-09-07T12:33:36.408Z,10.20
2022-09-07T12:34:35.794Z,9.10
2022-09-07T12:35:35.994Z,11.40
2022-09-07T12:36:36.231Z,8.60
2022-09-07T12:37:36.467Z,7.30
2022-09-07T12:38:36.798Z,8.00
2022-09-07T12:39:37.589Z,7.80
2022-09-07T12:40:37.451Z,9.90
2022-09-07T12:41:37.656Z,10.00
2022-09-07T12:42:37.942Z,8.00
2022-09-07T12:43:38.163Z,9.80
2022-09-07T12:44:38.416Z,9.70
2022-09-07T12:45:38.657Z,10.40
2022-09-07T12:46:38.978Z,8.40
2022-09-07T12:47:39.136Z,8.90
2022-09-07T12:48:39.467Z,9.80
2022-09-07T12:49:39.818Z,7.10
2022-09-07T12:50:40.449Z,6.90
2022-09-07T12:52:41.753Z,7.40
2022-09-07T12:53:41.061Z,8.50
2022-09-07T12:54:41.391Z,10.30
2022-09-07T12:56:43.180Z,14.80
2022-09-07T12:57:42.228Z,14.30
2022-09-07T12:58:42.488Z,11.80
2022-09-07T12:59:42.766Z,11.10
2022-09-07T13:00:43.058Z,7.70
2022-09-07T13:01:43.842Z,16.20
2022-09-07T13:02:43.803Z,11.00
2022-09-07T13:03:51.960Z,9.70
2022-09-07T13:04:45.179Z,8.50
2022-09-07T13:05:44.501Z,9.30
2022-09-07T13:07:45.930Z,9.60
2022-09-07T13:08:45.461Z,7.60
2022-09-07T13:09:45.529Z,9.50
2022-09-07T13:10:45.837Z,8.20
2022-09-07T13:11:46.149Z,10.80
2022-09-07T13:12:53.903Z,15.50
2022-09-07T13:14:05.146Z,12.10
2022-09-07T13:14:48.004Z,14.50
2022-09-07T13:15:48.588Z,9.20
2022-09-07T13:17:48.888Z,10.50
2022-09-07T13:18:48.158Z,10.90
2022-09-07T13:19:48.393Z,8.40
2022-09-07T13:20:48.816Z,7.60
2022-09-07T13:21:49.031Z,6.40
2022-09-07T13:22:49.279Z,7.80
2022-09-07T13:23:49.525Z,8.50
2022-09-07T13:24:49.834Z,9.40
2022-09-07T13:25:50.081Z,12.60
2022-09-07T13:26:51.273Z,9.30
2022-09-07T13:27:54.295Z,11.50
2022-09-07T13:28:50.946Z,9.80
2022-09-07T13:29:51.211Z,10.10
2022-09-07T13:30:51.502Z,9.30
2022-09-07T13:31:52.969Z,7.80
2022-09-07T13:33:08.362Z,8.90
2022-09-07T13:33:53.493Z,7.70
2022-09-07T13:34:52.698Z,6.40
2022-09-07T13:35:52.889Z,6.90
2022-09-07T13:36:53.189Z,7.50